sensor_id;sensor_type;location;lat;lon;timestamp;P1;durP1;ratioP1;P2;durP2;ratioP2
83465;SDS011;73393;51.946;20.140;2023-12-20T00:00:04;23.83;;;13.50;;
83465;SDS011;73393;51.946;20.140;2023-12-20T00:02:31;21.23;;;14.43;;
83465;SDS011;73393;51.946;20.140;2023-12-20T00:04:56;21.17;;;13.47;;
83465;SDS011;73393;51.946;20.140;2023-12-20T00:07:22;21.07;;;12.67;;
83465;SDS011;73393;51.946;20.140;2023-12-20T00:09:47;21.23;;;13.43;;
83465;SDS011;73393;51.946;20.140;2023-12-20T00:12:13;21.43;;;13.13;;
83465;SDS011;73393;51.946;20.140;2023-12-20T00:14:39;21.13;;;13.47;;
83465;SDS011;73393;51.946;20.140;2023-12-20T00:17:04;19.63;;;12.03;;
83465;SDS011;73393;51.946;20.140;2023-12-20T00:19:30;19.80;;;13.90;;
83465;SDS011;73393;51.946;20.140;2023-12-20T00:21:55;21.57;;;13.93;;
83465;SDS011;73393;51.946;20.140;2023-12-20T00:24:21;20.20;;;12.27;;
83465;SDS011;73393;51.946;20.140;2023-12-20T00:26:46;18.07;;;11.30;;
83465;SDS011;73393;51.946;20.140;2023-12-20T00:29:12;21.70;;;13.53;;
83465;SDS011;73393;51.946;20.140;2023-12-20T00:31:37;18.97;;;11.77;;
83465;SDS011;73393;51.946;20.140;2023-12-20T00:34:03;21.57;;;12.63;;
83465;SDS011;73393;51.946;20.140;2023-12-20T00:36:28;20.43;;;12.63;;
83465;SDS011;73393;51.946;20.140;2023-12-20T00:38:54;19.63;;;12.73;;
83465;SDS011;73393;51.946;20.140;2023-12-20T00:41:19;21.97;;;13.63;;
83465;SDS011;73393;51.946;20.140;2023-12-20T00:43:45;20.03;;;14.53;;
83465;SDS011;73393;51.946;20.140;2023-12-20T00:46:11;20.53;;;12.80;;
83465;SDS011;73393;51.946;20.140;2023-12-20T00:48:36;20.53;;;13.97;;
83465;SDS011;73393;51.946;20.140;2023-12-20T00:51:02;20.37;;;13.43;;
83465;SDS011;73393;51.946;20.140;2023-12-20T00:53:28;19.70;;;13.33;;
83465;SDS011;73393;51.946;20.140;2023-12-20T00:55:54;20.53;;;13.57;;
83465;SDS011;73393;51.946;20.140;2023-12-20T00:58:20;20.70;;;12.30;;
83465;SDS011;73393;51.946;20.140;2023-12-20T01:00:45;17.17;;;11.43;;
83465;SDS011;73393;51.946;20.140;2023-12-20T01:03:11;18.63;;;12.77;;
83465;SDS011;73393;51.946;20.140;2023-12-20T01:05:37;20.07;;;11.13;;
83465;SDS011;73393;51.946;20.140;2023-12-20T01:08:02;20.70;;;12.27;;
83465;SDS011;73393;51.946;20.140;2023-12-20T01:10:28;20.93;;;12.83;;
83465;SDS011;73393;51.946;20.140;2023-12-20T01:12:55;29.67;;;18.03;;
83465;SDS011;73393;51.946;20.140;2023-12-20T01:15:21;25.03;;;13.97;;
83465;SDS011;73393;51.946;20.140;2023-12-20T01:17:46;30.97;;;16.50;;
83465;SDS011;73393;51.946;20.140;2023-12-20T01:20:12;109.73;;;46.67;;
83465;SDS011;73393;51.946;20.140;2023-12-20T01:22:38;117.13;;;50.40;;
83465;SDS011;73393;51.946;20.140;2023-12-20T01:25:04;76.80;;;33.23;;
83465;SDS011;73393;51.946;20.140;2023-12-20T01:27:30;59.33;;;25.83;;
83465;SDS011;73393;51.946;20.140;2023-12-20T01:29:56;36.77;;;20.07;;
83465;SDS011;73393;51.946;20.140;2023-12-20T01:32:22;41.43;;;18.77;;
83465;SDS011;73393;51.946;20.140;2023-12-20T01:34:48;23.03;;;13.10;;
83465;SDS011;73393;51.946;20.140;2023-12-20T01:37:13;30.87;;;16.87;;
83465;SDS011;73393;51.946;20.140;2023-12-20T01:39:39;16.53;;;11.07;;
83465;SDS011;73393;51.946;20.140;2023-12-20T01:42:05;18.73;;;10.47;;
83465;SDS011;73393;51.946;20.140;2023-12-20T01:44:30;13.30;;;9.17;;
83465;SDS011;73393;51.946;20.140;2023-12-20T01:46:56;14.20;;;9.73;;
83465;SDS011;73393;51.946;20.140;2023-12-20T01:49:22;17.77;;;11.40;;
83465;SDS011;73393;51.946;20.140;2023-12-20T01:51:48;16.40;;;11.97;;
83465;SDS011;73393;51.946;20.140;2023-12-20T01:54:15;16.17;;;10.00;;
83465;SDS011;73393;51.946;20.140;2023-12-20T01:56:41;15.43;;;10.97;;
83465;SDS011;73393;51.946;20.140;2023-12-20T01:59:07;15.90;;;10.57;;
83465;SDS011;73393;51.946;20.140;2023-12-20T02:01:34;17.50;;;10.93;;
83465;SDS011;73393;51.946;20.140;2023-12-20T02:04:00;14.90;;;9.33;;
83465;SDS011;73393;51.946;20.140;2023-12-20T02:06:28;14.57;;;9.57;;
83465;SDS011;73393;51.946;20.140;2023-12-20T02:08:56;16.20;;;10.07;;
83465;SDS011;73393;51.946;20.140;2023-12-20T02:11:23;14.57;;;9.83;;
83465;SDS011;73393;51.946;20.140;2023-12-20T02:13:50;13.40;;;9.43;;
83465;SDS011;73393;51.946;20.140;2023-12-20T02:16:15;13.60;;;9.73;;
83465;SDS011;73393;51.946;20.140;2023-12-20T02:18:42;13.33;;;9.93;;
83465;SDS011;73393;51.946;20.140;2023-12-20T02:21:09;14.93;;;9.50;;
83465;SDS011;73393;51.946;20.140;2023-12-20T02:23:35;15.97;;;9.60;;
83465;SDS011;73393;51.946;20.140;2023-12-20T02:26:02;16.27;;;9.67;;
83465;SDS011;73393;51.946;20.140;2023-12-20T02:28:29;15.47;;;9.13;;
83465;SDS011;73393;51.946;20.140;2023-12-20T02:30:55;14.90;;;10.53;;
83465;SDS011;73393;51.946;20.140;2023-12-20T02:33:21;13.37;;;9.30;;
83465;SDS011;73393;51.946;20.140;2023-12-20T02:35:46;11.97;;;8.40;;
83465;SDS011;73393;51.946;20.140;2023-12-20T02:38:12;15.57;;;9.70;;
83465;SDS011;73393;51.946;20.140;2023-12-20T02:40:38;13.87;;;9.03;;
83465;SDS011;73393;51.946;20.140;2023-12-20T02:43:04;14.10;;;8.97;;
83465;SDS011;73393;51.946;20.140;2023-12-20T02:45:29;13.53;;;8.60;;
83465;SDS011;73393;51.946;20.140;2023-12-20T02:47:55;12.43;;;8.57;;
83465;SDS011;73393;51.946;20.140;2023-12-20T02:50:20;11.13;;;7.77;;
83465;SDS011;73393;51.946;20.140;2023-12-20T02:52:46;11.57;;;8.10;;
83465;SDS011;73393;51.946;20.140;2023-12-20T02:55:12;11.83;;;6.53;;
83465;SDS011;73393;51.946;20.140;2023-12-20T02:57:38;12.97;;;6.27;;
83465;SDS011;73393;51.946;20.140;2023-12-20T03:00:07;10.73;;;6.13;;
83465;SDS011;73393;51.946;20.140;2023-12-20T03:02:34;10.40;;;6.77;;
83465;SDS011;73393;51.946;20.140;2023-12-20T03:04:59;9.37;;;6.10;;
83465;SDS011;73393;51.946;20.140;2023-12-20T03:07:25;10.73;;;6.10;;
83465;SDS011;73393;51.946;20.140;2023-12-20T03:09:50;9.10;;;5.37;;
83465;SDS011;73393;51.946;20.140;2023-12-20T03:12:16;7.43;;;4.93;;
83465;SDS011;73393;51.946;20.140;2023-12-20T03:14:43;7.57;;;5.00;;
83465;SDS011;73393;51.946;20.140;2023-12-20T03:17:09;8.20;;;4.50;;
83465;SDS011;73393;51.946;20.140;2023-12-20T03:19:34;7.77;;;4.50;;
83465;SDS011;73393;51.946;20.140;2023-12-20T03:22:00;7.53;;;4.73;;
83465;SDS011;73393;51.946;20.140;2023-12-20T03:24:26;8.43;;;5.10;;
83465;SDS011;73393;51.946;20.140;2023-12-20T03:26:51;7.37;;;5.00;;
83465;SDS011;73393;51.946;20.140;2023-12-20T03:29:17;6.27;;;4.57;;
83465;SDS011;73393;51.946;20.140;2023-12-20T03:31:43;9.07;;;6.17;;
83465;SDS011;73393;51.946;20.140;2023-12-20T03:34:08;8.87;;;5.50;;
83465;SDS011;73393;51.946;20.140;2023-12-20T03:36:34;8.07;;;5.37;;
83465;SDS011;73393;51.946;20.140;2023-12-20T03:38:59;7.97;;;5.13;;
83465;SDS011;73393;51.946;20.140;2023-12-20T03:41:25;7.90;;;5.37;;
83465;SDS011;73393;51.946;20.140;2023-12-20T03:43:50;8.97;;;5.53;;
83465;SDS011;73393;51.946;20.140;2023-12-20T03:46:16;8.17;;;5.53;;
83465;SDS011;73393;51.946;20.140;2023-12-20T03:48:41;8.43;;;5.93;;
83465;SDS011;73393;51.946;20.140;2023-12-20T03:51:07;9.87;;;6.10;;
83465;SDS011;73393;51.946;20.140;2023-12-20T03:53:32;7.57;;;5.87;;
83465;SDS011;73393;51.946;20.140;2023-12-20T03:55:58;11.70;;;7.80;;
83465;SDS011;73393;51.946;20.140;2023-12-20T03:58:25;12.00;;;8.43;;
83465;SDS011;73393;51.946;20.140;2023-12-20T04:00:51;12.00;;;8.13;;
83465;SDS011;73393;51.946;20.140;2023-12-20T04:03:16;9.20;;;6.40;;
83465;SDS011;73393;51.946;20.140;2023-12-20T04:05:42;12.23;;;8.43;;
83465;SDS011;73393;51.946;20.140;2023-12-20T04:08:07;12.20;;;7.93;;
83465;SDS011;73393;51.946;20.140;2023-12-20T04:10:33;14.83;;;8.73;;
83465;SDS011;73393;51.946;20.140;2023-12-20T04:12:59;11.30;;;8.20;;
83465;SDS011;73393;51.946;20.140;2023-12-20T04:15:25;13.57;;;8.37;;
83465;SDS011;73393;51.946;20.140;2023-12-20T04:17:50;10.87;;;7.40;;
83465;SDS011;73393;51.946;20.140;2023-12-20T04:20:17;11.87;;;8.53;;
83465;SDS011;73393;51.946;20.140;2023-12-20T04:22:43;12.37;;;8.57;;
83465;SDS011;73393;51.946;20.140;2023-12-20T04:25:08;15.17;;;8.90;;
83465;SDS011;73393;51.946;20.140;2023-12-20T04:27:34;13.87;;;10.33;;
83465;SDS011;73393;51.946;20.140;2023-12-20T04:30:00;15.03;;;10.43;;
83465;SDS011;73393;51.946;20.140;2023-12-20T04:32:26;16.77;;;12.37;;
83465;SDS011;73393;51.946;20.140;2023-12-20T04:34:51;15.47;;;9.63;;
83465;SDS011;73393;51.946;20.140;2023-12-20T04:37:17;11.87;;;8.03;;
83465;SDS011;73393;51.946;20.140;2023-12-20T04:39:42;14.13;;;8.80;;
83465;SDS011;73393;51.946;20.140;2023-12-20T04:42:08;12.83;;;9.13;;
83465;SDS011;73393;51.946;20.140;2023-12-20T04:44:33;14.43;;;8.60;;
83465;SDS011;73393;51.946;20.140;2023-12-20T04:46:59;12.70;;;8.57;;
83465;SDS011;73393;51.946;20.140;2023-12-20T04:49:25;13.53;;;8.70;;
83465;SDS011;73393;51.946;20.140;2023-12-20T04:51:50;12.40;;;7.87;;
83465;SDS011;73393;51.946;20.140;2023-12-20T04:54:16;11.03;;;6.93;;
83465;SDS011;73393;51.946;20.140;2023-12-20T04:56:41;11.43;;;7.17;;
83465;SDS011;73393;51.946;20.140;2023-12-20T04:59:07;11.10;;;7.43;;
83465;SDS011;73393;51.946;20.140;2023-12-20T05:01:32;8.63;;;6.00;;
83465;SDS011;73393;51.946;20.140;2023-12-20T05:03:58;10.70;;;7.67;;
83465;SDS011;73393;51.946;20.140;2023-12-20T05:06:24;13.07;;;6.33;;
83465;SDS011;73393;51.946;20.140;2023-12-20T05:08:50;10.87;;;6.50;;
83465;SDS011;73393;51.946;20.140;2023-12-20T05:11:15;12.97;;;6.47;;
83465;SDS011;73393;51.946;20.140;2023-12-20T05:13:41;12.60;;;7.73;;
83465;SDS011;73393;51.946;20.140;2023-12-20T05:16:07;9.83;;;6.57;;
83465;SDS011;73393;51.946;20.140;2023-12-20T05:18:34;10.40;;;6.40;;
83465;SDS011;73393;51.946;20.140;2023-12-20T05:20:59;9.97;;;6.40;;
83465;SDS011;73393;51.946;20.140;2023-12-20T05:23:25;11.70;;;6.60;;
83465;SDS011;73393;51.946;20.140;2023-12-20T05:25:50;11.40;;;6.13;;
83465;SDS011;73393;51.946;20.140;2023-12-20T05:28:16;11.33;;;7.23;;
83465;SDS011;73393;51.946;20.140;2023-12-20T05:30:42;10.60;;;7.47;;
83465;SDS011;73393;51.946;20.140;2023-12-20T05:33:08;9.37;;;6.10;;
83465;SDS011;73393;51.946;20.140;2023-12-20T05:35:34;12.10;;;7.10;;
83465;SDS011;73393;51.946;20.140;2023-12-20T05:37:59;9.23;;;6.57;;
83465;SDS011;73393;51.946;20.140;2023-12-20T05:40:25;8.97;;;6.03;;
83465;SDS011;73393;51.946;20.140;2023-12-20T05:42:50;9.33;;;5.47;;
83465;SDS011;73393;51.946;20.140;2023-12-20T05:45:16;8.17;;;5.37;;
83465;SDS011;73393;51.946;20.140;2023-12-20T05:47:42;8.70;;;5.40;;
83465;SDS011;73393;51.946;20.140;2023-12-20T05:50:07;7.73;;;4.87;;
83465;SDS011;73393;51.946;20.140;2023-12-20T05:52:34;8.63;;;5.87;;
83465;SDS011;73393;51.946;20.140;2023-12-20T05:54:59;12.77;;;7.10;;
83465;SDS011;73393;51.946;20.140;2023-12-20T05:57:26;15.03;;;9.43;;
83465;SDS011;73393;51.946;20.140;2023-12-20T05:59:52;15.70;;;9.20;;
83465;SDS011;73393;51.946;20.140;2023-12-20T06:02:18;13.40;;;7.60;;
83465;SDS011;73393;51.946;20.140;2023-12-20T06:04:44;11.27;;;6.60;;
83465;SDS011;73393;51.946;20.140;2023-12-20T06:07:15;12.27;;;7.03;;
83465;SDS011;73393;51.946;20.140;2023-12-20T06:09:41;11.13;;;7.17;;
83465;SDS011;73393;51.946;20.140;2023-12-20T06:12:07;13.53;;;7.83;;
83465;SDS011;73393;51.946;20.140;2023-12-20T06:14:36;14.93;;;8.97;;
83465;SDS011;73393;51.946;20.140;2023-12-20T06:17:02;10.53;;;7.43;;
83465;SDS011;73393;51.946;20.140;2023-12-20T06:19:27;10.57;;;8.23;;
83465;SDS011;73393;51.946;20.140;2023-12-20T06:21:53;12.50;;;7.60;;
83465;SDS011;73393;51.946;20.140;2023-12-20T06:24:19;12.80;;;7.33;;
83465;SDS011;73393;51.946;20.140;2023-12-20T06:26:44;14.87;;;9.37;;
83465;SDS011;73393;51.946;20.140;2023-12-20T06:29:10;21.33;;;12.70;;
83465;SDS011;73393;51.946;20.140;2023-12-20T06:31:35;18.23;;;10.63;;
83465;SDS011;73393;51.946;20.140;2023-12-20T06:34:01;17.33;;;10.23;;
83465;SDS011;73393;51.946;20.140;2023-12-20T06:36:27;16.83;;;10.07;;
83465;SDS011;73393;51.946;20.140;2023-12-20T06:38:52;18.77;;;11.27;;
83465;SDS011;73393;51.946;20.140;2023-12-20T06:41:18;13.83;;;8.77;;
83465;SDS011;73393;51.946;20.140;2023-12-20T06:43:44;13.33;;;7.97;;
83465;SDS011;73393;51.946;20.140;2023-12-20T06:46:09;11.23;;;7.90;;
83465;SDS011;73393;51.946;20.140;2023-12-20T06:48:36;13.80;;;8.63;;
83465;SDS011;73393;51.946;20.140;2023-12-20T06:51:02;23.93;;;13.07;;
83465;SDS011;73393;51.946;20.140;2023-12-20T06:53:27;22.73;;;13.33;;
83465;SDS011;73393;51.946;20.140;2023-12-20T06:55:53;23.03;;;11.07;;
83465;SDS011;73393;51.946;20.140;2023-12-20T06:58:21;17.50;;;10.07;;
83465;SDS011;73393;51.946;20.140;2023-12-20T07:00:46;17.00;;;9.33;;
83465;SDS011;73393;51.946;20.140;2023-12-20T07:03:12;14.00;;;7.73;;
83465;SDS011;73393;51.946;20.140;2023-12-20T07:05:38;18.93;;;8.77;;
83465;SDS011;73393;51.946;20.140;2023-12-20T07:08:04;13.87;;;8.10;;
83465;SDS011;73393;51.946;20.140;2023-12-20T07:10:30;10.73;;;6.87;;
83465;SDS011;73393;51.946;20.140;2023-12-20T07:12:55;17.40;;;9.97;;
83465;SDS011;73393;51.946;20.140;2023-12-20T07:15:21;17.03;;;9.03;;
83465;SDS011;73393;51.946;20.140;2023-12-20T07:17:47;15.20;;;7.97;;
83465;SDS011;73393;51.946;20.140;2023-12-20T07:20:13;11.30;;;7.07;;
83465;SDS011;73393;51.946;20.140;2023-12-20T07:22:38;12.90;;;6.73;;
83465;SDS011;73393;51.946;20.140;2023-12-20T07:25:04;12.87;;;8.60;;
83465;SDS011;73393;51.946;20.140;2023-12-20T07:27:30;13.50;;;7.80;;
83465;SDS011;73393;51.946;20.140;2023-12-20T07:29:56;12.23;;;7.87;;
83465;SDS011;73393;51.946;20.140;2023-12-20T07:32:21;17.10;;;10.20;;
83465;SDS011;73393;51.946;20.140;2023-12-20T07:34:47;20.50;;;10.87;;
83465;SDS011;73393;51.946;20.140;2023-12-20T07:37:12;20.33;;;8.63;;
83465;SDS011;73393;51.946;20.140;2023-12-20T07:39:41;19.73;;;10.13;;
83465;SDS011;73393;51.946;20.140;2023-12-20T07:42:07;15.40;;;9.40;;
83465;SDS011;73393;51.946;20.140;2023-12-20T07:44:35;22.27;;;11.37;;
83465;SDS011;73393;51.946;20.140;2023-12-20T07:47:03;12.53;;;7.43;;
83465;SDS011;73393;51.946;20.140;2023-12-20T07:49:32;22.97;;;11.03;;
83465;SDS011;73393;51.946;20.140;2023-12-20T07:51:58;22.33;;;11.60;;
83465;SDS011;73393;51.946;20.140;2023-12-20T07:54:23;22.90;;;11.00;;
83465;SDS011;73393;51.946;20.140;2023-12-20T07:56:49;25.83;;;11.07;;
83465;SDS011;73393;51.946;20.140;2023-12-20T07:59:15;20.40;;;11.27;;
83465;SDS011;73393;51.946;20.140;2023-12-20T08:01:40;18.87;;;10.87;;
83465;SDS011;73393;51.946;20.140;2023-12-20T08:04:07;15.03;;;8.47;;
83465;SDS011;73393;51.946;20.140;2023-12-20T08:06:32;17.17;;;9.43;;
83465;SDS011;73393;51.946;20.140;2023-12-20T08:08:58;17.50;;;8.57;;
83465;SDS011;73393;51.946;20.140;2023-12-20T08:11:23;14.03;;;7.37;;
83465;SDS011;73393;51.946;20.140;2023-12-20T08:13:49;17.40;;;8.50;;
83465;SDS011;73393;51.946;20.140;2023-12-20T08:16:15;15.30;;;8.20;;
83465;SDS011;73393;51.946;20.140;2023-12-20T08:18:42;16.47;;;9.00;;
83465;SDS011;73393;51.946;20.140;2023-12-20T08:21:08;17.10;;;10.97;;
83465;SDS011;73393;51.946;20.140;2023-12-20T08:23:34;16.10;;;8.20;;
83465;SDS011;73393;51.946;20.140;2023-12-20T08:26:06;24.70;;;12.90;;
83465;SDS011;73393;51.946;20.140;2023-12-20T08:28:33;28.33;;;14.07;;
83465;SDS011;73393;51.946;20.140;2023-12-20T08:30:59;18.73;;;11.00;;
83465;SDS011;73393;51.946;20.140;2023-12-20T08:33:25;17.60;;;9.10;;
83465;SDS011;73393;51.946;20.140;2023-12-20T08:35:50;16.13;;;10.97;;
83465;SDS011;73393;51.946;20.140;2023-12-20T08:38:16;14.43;;;8.53;;
83465;SDS011;73393;51.946;20.140;2023-12-20T08:40:42;11.30;;;7.23;;
83465;SDS011;73393;51.946;20.140;2023-12-20T08:43:08;14.07;;;9.00;;
83465;SDS011;73393;51.946;20.140;2023-12-20T08:45:34;13.60;;;8.33;;
83465;SDS011;73393;51.946;20.140;2023-12-20T08:48:00;11.23;;;7.37;;
83465;SDS011;73393;51.946;20.140;2023-12-20T08:50:25;10.67;;;6.97;;
83465;SDS011;73393;51.946;20.140;2023-12-20T08:52:51;12.97;;;7.97;;
83465;SDS011;73393;51.946;20.140;2023-12-20T08:55:16;10.30;;;6.83;;
83465;SDS011;73393;51.946;20.140;2023-12-20T08:57:43;9.77;;;6.23;;
83465;SDS011;73393;51.946;20.140;2023-12-20T09:00:09;12.37;;;7.07;;
83465;SDS011;73393;51.946;20.140;2023-12-20T09:02:35;10.70;;;7.27;;
83465;SDS011;73393;51.946;20.140;2023-12-20T09:05:04;11.23;;;7.87;;
83465;SDS011;73393;51.946;20.140;2023-12-20T09:07:29;10.00;;;6.70;;
83465;SDS011;73393;51.946;20.140;2023-12-20T09:09:57;9.60;;;6.20;;
83465;SDS011;73393;51.946;20.140;2023-12-20T09:12:23;11.90;;;6.77;;
83465;SDS011;73393;51.946;20.140;2023-12-20T09:14:49;12.00;;;6.43;;
83465;SDS011;73393;51.946;20.140;2023-12-20T09:17:15;12.13;;;6.57;;
83465;SDS011;73393;51.946;20.140;2023-12-20T09:19:42;11.43;;;6.73;;
83465;SDS011;73393;51.946;20.140;2023-12-20T09:22:08;12.37;;;6.90;;
83465;SDS011;73393;51.946;20.140;2023-12-20T09:24:34;10.47;;;6.67;;
83465;SDS011;73393;51.946;20.140;2023-12-20T09:27:00;10.87;;;6.80;;
83465;SDS011;73393;51.946;20.140;2023-12-20T09:29:25;10.90;;;7.20;;
83465;SDS011;73393;51.946;20.140;2023-12-20T09:31:51;13.23;;;8.90;;
83465;SDS011;73393;51.946;20.140;2023-12-20T09:34:16;10.87;;;6.93;;
83465;SDS011;73393;51.946;20.140;2023-12-20T09:36:42;14.10;;;8.67;;
83465;SDS011;73393;51.946;20.140;2023-12-20T09:39:14;17.77;;;10.67;;
83465;SDS011;73393;51.946;20.140;2023-12-20T09:41:44;15.23;;;10.37;;
83465;SDS011;73393;51.946;20.140;2023-12-20T09:44:15;13.07;;;8.07;;
83465;SDS011;73393;51.946;20.140;2023-12-20T09:49:09;12.10;;;8.53;;
83465;SDS011;73393;51.946;20.140;2023-12-20T09:51:36;12.67;;;7.47;;
83465;SDS011;73393;51.946;20.140;2023-12-20T09:54:03;12.50;;;7.40;;
83465;SDS011;73393;51.946;20.140;2023-12-20T09:56:29;11.13;;;7.00;;
83465;SDS011;73393;51.946;20.140;2023-12-20T09:58:55;17.23;;;9.27;;
83465;SDS011;73393;51.946;20.140;2023-12-20T10:01:21;14.90;;;8.97;;
83465;SDS011;73393;51.946;20.140;2023-12-20T10:03:49;11.63;;;7.60;;
83465;SDS011;73393;51.946;20.140;2023-12-20T10:06:18;10.17;;;6.67;;
83465;SDS011;73393;51.946;20.140;2023-12-20T10:08:43;16.20;;;9.07;;
83465;SDS011;73393;51.946;20.140;2023-12-20T10:11:09;16.53;;;10.77;;
83465;SDS011;73393;51.946;20.140;2023-12-20T10:13:39;18.50;;;13.23;;
83465;SDS011;73393;51.946;20.140;2023-12-20T10:16:06;23.70;;;13.43;;
83465;SDS011;73393;51.946;20.140;2023-12-20T10:18:35;55.30;;;19.90;;
83465;SDS011;73393;51.946;20.140;2023-12-20T10:21:01;28.70;;;13.07;;
83465;SDS011;73393;51.946;20.140;2023-12-20T10:23:28;18.53;;;9.53;;
83465;SDS011;73393;51.946;20.140;2023-12-20T10:25:57;16.47;;;9.37;;
83465;SDS011;73393;51.946;20.140;2023-12-20T10:28:23;16.13;;;8.10;;
83465;SDS011;73393;51.946;20.140;2023-12-20T10:30:52;8.77;;;5.53;;
83465;SDS011;73393;51.946;20.140;2023-12-20T10:33:24;13.13;;;6.63;;
83465;SDS011;73393;51.946;20.140;2023-12-20T10:35:51;11.47;;;4.97;;
83465;SDS011;73393;51.946;20.140;2023-12-20T10:38:17;11.53;;;6.03;;
83465;SDS011;73393;51.946;20.140;2023-12-20T10:40:43;7.80;;;4.50;;
83465;SDS011;73393;51.946;20.140;2023-12-20T10:43:10;8.97;;;5.27;;
83465;SDS011;73393;51.946;20.140;2023-12-20T10:45:36;10.07;;;5.27;;
83465;SDS011;73393;51.946;20.140;2023-12-20T10:48:03;10.07;;;6.13;;
83465;SDS011;73393;51.946;20.140;2023-12-20T10:50:29;8.73;;;4.93;;
83465;SDS011;73393;51.946;20.140;2023-12-20T10:52:57;11.37;;;6.50;;
83465;SDS011;73393;51.946;20.140;2023-12-20T10:55:23;13.37;;;9.10;;
83465;SDS011;73393;51.946;20.140;2023-12-20T10:58:00;18.53;;;8.23;;
83465;SDS011;73393;51.946;20.140;2023-12-20T11:00:26;11.73;;;6.00;;
83465;SDS011;73393;51.946;20.140;2023-12-20T11:02:57;11.07;;;6.40;;
83465;SDS011;73393;51.946;20.140;2023-12-20T11:05:30;12.63;;;6.07;;
83465;SDS011;73393;51.946;20.140;2023-12-20T11:08:10;10.27;;;5.60;;
83465;SDS011;73393;51.946;20.140;2023-12-20T11:10:53;8.70;;;4.67;;
83465;SDS011;73393;51.946;20.140;2023-12-20T11:13:54;9.47;;;4.57;;
83465;SDS011;73393;51.946;20.140;2023-12-20T11:16:23;7.47;;;5.10;;
83465;SDS011;73393;51.946;20.140;2023-12-20T11:18:50;6.47;;;3.90;;
83465;SDS011;73393;51.946;20.140;2023-12-20T11:21:17;8.83;;;4.60;;
83465;SDS011;73393;51.946;20.140;2023-12-20T11:23:43;5.80;;;3.03;;
83465;SDS011;73393;51.946;20.140;2023-12-20T11:26:08;7.53;;;3.87;;
83465;SDS011;73393;51.946;20.140;2023-12-20T11:28:34;5.23;;;2.70;;
83465;SDS011;73393;51.946;20.140;2023-12-20T11:31:00;10.83;;;4.00;;
83465;SDS011;73393;51.946;20.140;2023-12-20T11:33:31;6.90;;;3.40;;
83465;SDS011;73393;51.946;20.140;2023-12-20T11:36:00;4.47;;;2.80;;
83465;SDS011;73393;51.946;20.140;2023-12-20T11:38:27;6.90;;;3.27;;
83465;SDS011;73393;51.946;20.140;2023-12-20T11:41:01;6.67;;;4.00;;
83465;SDS011;73393;51.946;20.140;2023-12-20T11:43:35;8.00;;;4.17;;
83465;SDS011;73393;51.946;20.140;2023-12-20T11:46:05;5.97;;;3.40;;
83465;SDS011;73393;51.946;20.140;2023-12-20T11:48:32;13.03;;;4.80;;
83465;SDS011;73393;51.946;20.140;2023-12-20T11:50:59;7.20;;;3.57;;
83465;SDS011;73393;51.946;20.140;2023-12-20T11:53:25;6.53;;;4.00;;
83465;SDS011;73393;51.946;20.140;2023-12-20T11:55:51;13.97;;;7.77;;
83465;SDS011;73393;51.946;20.140;2023-12-20T11:58:17;9.57;;;5.77;;
83465;SDS011;73393;51.946;20.140;2023-12-20T12:00:43;12.33;;;6.90;;
83465;SDS011;73393;51.946;20.140;2023-12-20T12:03:09;9.00;;;4.60;;
83465;SDS011;73393;51.946;20.140;2023-12-20T12:05:34;6.50;;;4.33;;
83465;SDS011;73393;51.946;20.140;2023-12-20T12:08:00;7.67;;;4.23;;
83465;SDS011;73393;51.946;20.140;2023-12-20T12:10:28;6.80;;;4.57;;
83465;SDS011;73393;51.946;20.140;2023-12-20T12:12:54;9.37;;;5.63;;
83465;SDS011;73393;51.946;20.140;2023-12-20T12:15:21;25.20;;;14.80;;
83465;SDS011;73393;51.946;20.140;2023-12-20T12:17:56;75.93;;;33.97;;
83465;SDS011;73393;51.946;20.140;2023-12-20T12:20:22;42.87;;;16.70;;
83465;SDS011;73393;51.946;20.140;2023-12-20T12:22:59;27.63;;;13.33;;
83465;SDS011;73393;51.946;20.140;2023-12-20T12:25:28;33.80;;;16.97;;
83465;SDS011;73393;51.946;20.140;2023-12-20T12:27:56;20.67;;;9.13;;
83465;SDS011;73393;51.946;20.140;2023-12-20T12:30:22;17.50;;;8.47;;
83465;SDS011;73393;51.946;20.140;2023-12-20T12:32:48;21.23;;;9.43;;
83465;SDS011;73393;51.946;20.140;2023-12-20T12:35:14;20.13;;;9.40;;
83465;SDS011;73393;51.946;20.140;2023-12-20T12:37:40;15.87;;;7.83;;
83465;SDS011;73393;51.946;20.140;2023-12-20T12:40:09;21.60;;;9.57;;
83465;SDS011;73393;51.946;20.140;2023-12-20T12:42:39;16.70;;;8.73;;
83465;SDS011;73393;51.946;20.140;2023-12-20T12:45:07;13.40;;;7.07;;
83465;SDS011;73393;51.946;20.140;2023-12-20T12:47:33;15.97;;;8.10;;
83465;SDS011;73393;51.946;20.140;2023-12-20T12:49:59;13.37;;;7.53;;
83465;SDS011;73393;51.946;20.140;2023-12-20T12:52:24;11.53;;;7.33;;
83465;SDS011;73393;51.946;20.140;2023-12-20T12:54:51;21.07;;;9.83;;
83465;SDS011;73393;51.946;20.140;2023-12-20T12:57:18;16.90;;;9.83;;
83465;SDS011;73393;51.946;20.140;2023-12-20T12:59:44;13.40;;;7.80;;
83465;SDS011;73393;51.946;20.140;2023-12-20T13:02:13;16.23;;;9.87;;
83465;SDS011;73393;51.946;20.140;2023-12-20T13:04:42;14.33;;;9.20;;
83465;SDS011;73393;51.946;20.140;2023-12-20T13:07:08;12.07;;;7.87;;
83465;SDS011;73393;51.946;20.140;2023-12-20T13:09:38;10.80;;;7.10;;
83465;SDS011;73393;51.946;20.140;2023-12-20T13:12:08;22.43;;;10.90;;
83465;SDS011;73393;51.946;20.140;2023-12-20T13:14:34;22.57;;;10.07;;
83465;SDS011;73393;51.946;20.140;2023-12-20T13:17:01;11.47;;;6.63;;
83465;SDS011;73393;51.946;20.140;2023-12-20T13:19:28;15.83;;;8.30;;
83465;SDS011;73393;51.946;20.140;2023-12-20T13:21:55;10.90;;;7.33;;
83465;SDS011;73393;51.946;20.140;2023-12-20T13:24:20;14.60;;;8.67;;
83465;SDS011;73393;51.946;20.140;2023-12-20T13:26:46;17.30;;;10.40;;
83465;SDS011;73393;51.946;20.140;2023-12-20T13:29:12;20.40;;;11.60;;
83465;SDS011;73393;51.946;20.140;2023-12-20T13:31:37;17.50;;;10.23;;
83465;SDS011;73393;51.946;20.140;2023-12-20T13:34:04;15.13;;;8.97;;
83465;SDS011;73393;51.946;20.140;2023-12-20T13:36:30;13.00;;;6.67;;
83465;SDS011;73393;51.946;20.140;2023-12-20T13:38:55;11.33;;;6.57;;
83465;SDS011;73393;51.946;20.140;2023-12-20T13:41:21;13.00;;;6.93;;
83465;SDS011;73393;51.946;20.140;2023-12-20T13:43:47;11.57;;;6.63;;
83465;SDS011;73393;51.946;20.140;2023-12-20T13:46:12;11.53;;;5.67;;
83465;SDS011;73393;51.946;20.140;2023-12-20T13:48:39;12.03;;;6.10;;
83465;SDS011;73393;51.946;20.140;2023-12-20T13:51:04;9.33;;;6.47;;
83465;SDS011;73393;51.946;20.140;2023-12-20T13:53:31;10.80;;;5.70;;
83465;SDS011;73393;51.946;20.140;2023-12-20T13:55:56;8.07;;;5.00;;
83465;SDS011;73393;51.946;20.140;2023-12-20T13:58:22;10.07;;;5.17;;
83465;SDS011;73393;51.946;20.140;2023-12-20T14:00:48;9.53;;;4.90;;
83465;SDS011;73393;51.946;20.140;2023-12-20T14:03:14;10.97;;;6.03;;
83465;SDS011;73393;51.946;20.140;2023-12-20T14:05:39;7.70;;;4.77;;
83465;SDS011;73393;51.946;20.140;2023-12-20T14:08:06;12.20;;;5.17;;
83465;SDS011;73393;51.946;20.140;2023-12-20T14:10:32;9.90;;;5.60;;
83465;SDS011;73393;51.946;20.140;2023-12-20T14:12:58;11.57;;;5.90;;
83465;SDS011;73393;51.946;20.140;2023-12-20T14:15:23;14.90;;;8.20;;
83465;SDS011;73393;51.946;20.140;2023-12-20T14:17:50;8.27;;;4.53;;